Time;durP1;ratioP1;P1;durP2;ratioP2;P2;SDS_P1;SDS_P2;PMS_P1;PMS_P2;Temp;Humidity;BMP_temperature;BMP_pressure;BME280_temperature;BME280_humidity;BME280_pressure;Samples;Min_cycle;Max_cycle;Signal;HPM_P1;HPM_P2
2021/07/05 00:00:22;;;;;;;0.70;0.20;;;;;;;13.14;98.40;95351.53;5005900;28;20232;-68
2021/07/05 00:02:51;;;;;;;0.77;0.40;;;;;;;13.11;98.88;95358.06;4993244;28;20717;-68
2021/07/05 00:05:20;;;;;;;1.90;0.20;;;;;;;13.11;98.94;95360.72;4994868;28;20745;-68
2021/07/05 00:07:48;;;;;;;1.00;0.67;;;;;;;13.12;99.04;95357.03;5000220;28;20228;-68
2021/07/05 00:10:19;;;;;;;6.10;0.20;;;;;;;13.10;99.15;95344.00;5001811;28;20251;-68
2021/07/05 00:12:49;;;;;;;0.53;0.40;;;;;;;13.21;99.18;95345.25;5002035;28;20236;-68
2021/07/05 00:15:20;;;;;;;4.00;1.87;;;;;;;13.25;99.26;95340.31;4996171;28;20224;-68
2021/07/05 00:17:52;;;;;;;1.53;0.80;;;;;;;13.35;99.09;95341.53;5014766;28;20518;-68
2021/07/05 00:20:21;;;;;;;3.00;0.40;;;;;;;13.40;98.89;95332.13;5000660;28;20224;-68
2021/07/05 00:22:49;;;;;;;0.40;0.40;;;;;;;13.41;98.81;95342.53;5000879;28;20251;-69
2021/07/05 00:25:18;;;;;;;0.70;0.50;;;;;;;13.34;98.55;95342.53;5000676;28;20636;-68
2021/07/05 00:27:46;;;;;;;0.47;0.23;;;;;;;13.38;98.53;95333.16;5014168;28;20612;-68
2021/07/05 00:30:16;;;;;;;2.07;0.67;;;;;;;13.36;98.37;95339.69;5000810;28;20304;-69
2021/07/05 00:32:45;;;;;;;0.97;0.50;;;;;;;13.43;98.09;95331.72;4996200;28;20262;-68
2021/07/05 00:35:18;;;;;;;1.10;0.40;;;;;;;13.46;97.80;95336.63;4999504;28;20344;-69
2021/07/05 00:37:47;;;;;;;1.73;0.47;;;;;;;13.48;97.62;95329.25;4996057;28;20315;-68
2021/07/05 00:40:17;;;;;;;2.10;0.40;;;;;;;13.47;97.90;95328.44;4999209;28;20232;-68
2021/07/05 00:42:46;;;;;;;0.40;0.20;;;;;;;13.41;97.46;95334.56;5002640;28;20733;-68
2021/07/05 00:45:16;;;;;;;1.30;0.50;;;;;;;13.40;97.62;95334.78;4992499;28;20271;-69
2021/07/05 00:47:45;;;;;;;0.20;0.20;;;;;;;13.37;97.64;95334.19;4994276;28;20746;-69
2021/07/05 00:50:18;;;;;;;2.00;0.50;;;;;;;13.33;97.76;95340.91;5003877;28;20220;-68
2021/07/05 00:52:50;;;;;;;0.57;0.57;;;;;;;13.26;97.71;95340.16;5013630;28;20248;-68
2021/07/05 00:55:19;;;;;;;0.83;0.60;;;;;;;13.19;97.87;95334.03;5010865;28;20645;-68
2021/07/05 00:57:47;;;;;;;1.60;0.73;;;;;;;13.14;97.64;95328.50;5005405;28;20692;-69
2021/07/05 01:00:18;;;;;;;0.60;0.40;;;;;;;13.03;97.73;95334.44;5014085;28;20304;-68
2021/07/05 01:02:48;;;;;;;0.70;0.63;;;;;;;12.92;97.86;95329.78;4995503;28;20236;-68
2021/07/05 01:05:19;;;;;;;0.43;0.30;;;;;;;12.85;98.09;95324.50;5016162;28;20223;-68
2021/07/05 01:07:47;;;;;;;0.50;0.50;;;;;;;12.90;98.25;95331.84;5006727;28;20247;-68
2021/07/05 01:10:17;;;;;;;1.17;0.50;;;;;;;12.87;97.81;95332.22;4993429;28;20304;-68
2021/07/05 01:12:46;;;;;;;1.20;1.10;;;;;;;12.85;98.05;95332.44;5004921;28;20312;-68
2021/07/05 01:15:20;;;;;;;1.03;0.50;;;;;;;12.82;98.24;95309.84;5000006;28;20220;-68
2021/07/05 01:17:49;;;;;;;0.40;0.40;;;;;;;12.79;98.76;95312.06;5000250;28;20231;-68
2021/07/05 01:20:20;;;;;;;0.40;0.40;;;;;;;12.74;99.10;95307.41;5004878;28;20257;-69
2021/07/05 01:22:50;;;;;;;3.47;0.50;;;;;;;12.66;99.62;95304.16;4986838;28;20251;-68
2021/07/05 01:25:21;;;;;;;0.73;0.50;;;;;;;12.71;100.00;95307.81;4999275;28;20226;-68
2021/07/05 01:27:50;;;;;;;0.50;0.30;;;;;;;12.82;99.87;95307.19;5018333;28;20341;-68
2021/07/05 01:30:20;;;;;;;2.00;0.40;;;;;;;12.74;99.87;95310.03;5010108;28;20247;-69
2021/07/05 01:32:50;;;;;;;2.30;0.70;;;;;;;12.88;100.00;95310.00;5007464;28;20296;-69
2021/07/05 01:35:18;;;;;;;0.70;0.70;;;;;;;12.66;99.94;95318.19;4994769;28;20319;-69
2021/07/05 01:37:47;;;;;;;4.33;0.60;;;;;;;12.70;100.00;95306.16;4995530;28;20274;-67
2021/07/05 01:40:18;;;;;;;0.70;0.70;;;;;;;12.70;100.00;95308.81;5000462;28;20298;-68
2021/07/05 01:42:51;;;;;;;0.70;0.70;;;;;;;12.63;100.00;95309.88;4996902;28;20225;-68
2021/07/05 01:45:22;;;;;;;1.40;1.30;;;;;;;12.60;100.00;95316.34;5005724;28;20844;-68
2021/07/05 01:47:51;;;;;;;0.60;0.60;;;;;;;12.63;100.00;95318.63;5002675;28;20252;-68
2021/07/05 01:50:21;;;;;;;3.60;0.77;;;;;;;12.81;100.00;95312.69;5010347;28;20316;-68
2021/07/05 01:52:49;;;;;;;2.13;0.43;;;;;;;12.81;99.63;95308.22;5005435;28;20220;-67
2021/07/05 01:55:26;;;;;;;0.63;0.63;;;;;;;12.93;100.00;95304.94;5004406;28;20778;-68
2021/07/05 01:57:54;;;;;;;0.30;0.30;;;;;;;13.03;100.00;95308.78;4998950;28;20254;-68
2021/07/05 02:00:23;;;;;;;0.70;0.70;;;;;;;13.03;100.00;95300.00;5004284;28;20745;-67
2021/07/05 02:02:53;;;;;;;0.37;0.30;;;;;;;13.03;100.00;95300.00;5011532;28;20284;-67
2021/07/05 02:05:22;;;;;;;0.73;0.73;;;;;;;13.07;100.00;95301.22;5009584;28;20681;-69
2021/07/05 02:07:51;;;;;;;11.60;2.00;;;;;;;13.08;100.00;95300.22;4995127;28;20631;-68
2021/07/05 02:10:23;;;;;;;0.67;0.67;;;;;;;13.13;99.84;95297.75;4993764;28;20363;-69
2021/07/05 02:12:53;;;;;;;0.60;0.60;;;;;;;13.15;99.92;95302.81;5006271;28;20685;-68
2021/07/05 02:15:21;;;;;;;0.40;0.30;;;;;;;13.12;99.86;95309.38;4992660;28;20298;-68
2021/07/05 02:17:49;;;;;;;0.50;0.50;;;;;;;13.15;99.62;95313.41;4995013;28;20235;-68
2021/07/05 02:20:20;;;;;;;0.50;0.50;;;;;;;13.17;99.55;95312.22;4991349;28;20773;-68
2021/07/05 02:22:50;;;;;;;0.60;0.57;;;;;;;13.14;99.48;95307.31;5001909;28;20312;-68
2021/07/05 02:25:26;;;;;;;0.50;0.50;;;;;;;13.16;99.16;95305.25;5000748;28;20239;-67
2021/07/05 02:27:55;;;;;;;1.77;0.50;;;;;;;13.24;98.95;95302.41;5002326;28;20237;-68
2021/07/05 02:30:25;;;;;;;0.50;0.40;;;;;;;13.28;98.63;95303.66;5007925;28;20228;-68
2021/07/05 02:32:54;;;;;;;0.70;0.53;;;;;;;13.33;98.36;95290.56;5004150;28;20315;-68
2021/07/05 02:35:25;;;;;;;4.57;1.30;;;;;;;13.32;98.10;95288.94;5004640;28;20256;-68
2021/07/05 02:37:54;;;;;;;2.27;1.60;;;;;;;13.31;98.17;95292.63;5000713;28;20231;-68
2021/07/05 02:40:30;;;;;;;1.53;1.17;;;;;;;13.30;98.19;95288.34;5003612;28;20304;-68
2021/07/05 02:42:58;;;;;;;0.60;0.60;;;;;;;13.28;98.38;95282.44;5003775;28;20647;-68
2021/07/05 02:45:27;;;;;;;0.60;0.60;;;;;;;13.32;98.45;95294.25;5003139;28;20418;-68
2021/07/05 02:47:58;;;;;;;0.77;0.70;;;;;;;13.29;98.52;95299.16;4996562;28;20232;-67
2021/07/05 02:50:26;;;;;;;0.73;0.70;;;;;;;13.25;98.83;95304.03;4996561;28;20216;-68
2021/07/05 02:52:56;;;;;;;2.10;1.20;;;;;;;13.27;98.85;95285.31;5000606;28;20267;-67
2021/07/05 02:55:25;;;;;;;1.13;1.10;;;;;;;13.36;98.63;95290.16;4996890;28;20954;-69
2021/07/05 02:57:54;;;;;;;0.93;0.93;;;;;;;13.29;98.43;95292.00;4998220;28;20659;-68
2021/07/05 03:00:26;;;;;;;1.63;0.80;;;;;;;13.24;98.48;95286.53;5008553;28;20208;-66
2021/07/05 03:02:55;;;;;;;0.70;0.70;;;;;;;13.20;98.75;95289.81;5004939;28;20240;-66
2021/07/05 03:05:24;;;;;;;0.87;0.50;;;;;;;13.16;98.88;95289.38;5001741;28;20230;-65
2021/07/05 03:07:53;;;;;;;0.37;0.37;;;;;;;13.15;99.16;95289.56;4994655;28;20232;-66
2021/07/05 03:10:26;;;;;;;0.70;0.70;;;;;;;13.11;99.23;95299.78;5017415;28;20211;-67
2021/07/05 03:12:55;;;;;;;0.83;0.73;;;;;;;13.03;99.10;95298.16;5010937;28;20315;-66
2021/07/05 03:15:23;;;;;;;3.33;0.87;;;;;;;13.00;99.18;95292.50;5012749;28;20219;-66
2021/07/05 03:17:56;;;;;;;3.90;0.60;;;;;;;12.99;99.24;95293.50;4997507;28;20229;-66
2021/07/05 03:20:27;;;;;;;4.30;1.70;;;;;;;12.94;99.47;95298.59;4992426;28;20778;-66
2021/07/05 03:22:56;;;;;;;0.20;0.20;;;;;;;12.91;99.25;95299.03;5009621;28;20319;-66
2021/07/05 03:25:28;;;;;;;0.30;0.30;;;;;;;12.91;99.39;95299.84;4996602;28;20308;-65
2021/07/05 03:27:56;;;;;;;0.30;0.30;;;;;;;12.88;99.41;95300.22;4995493;28;20295;-66
2021/07/05 03:30:26;;;;;;;5.50;0.73;;;;;;;12.91;99.38;95301.69;4990016;28;20227;-66
2021/07/05 03:32:56;;;;;;;0.90;0.83;;;;;;;12.91;98.87;95299.03;5003904;28;20233;-66
2021/07/05 03:35:25;;;;;;;0.40;0.40;;;;;;;12.91;98.50;95297.19;4999295;28;20302;-65
2021/07/05 03:37:53;;;;;;;3.87;0.70;;;;;;;12.82;98.56;95303.72;4994218;28;20782;-66
2021/07/05 03:40:23;;;;;;;2.30;1.10;;;;;;;12.87;98.57;95306.56;4984641;28;20224;-65
2021/07/05 03:42:53;;;;;;;0.50;0.47;;;;;;;12.89;98.27;95309.00;5004702;28;20224;-66
2021/07/05 03:45:23;;;;;;;2.43;1.30;;;;;;;12.90;98.19;95319.41;5004842;28;20310;-65
2021/07/05 03:47:52;;;;;;;1.93;0.23;;;;;;;12.97;98.18;95317.53;5005588;28;20648;-66
2021/07/05 03:50:21;;;;;;;2.33;2.13;;;;;;;12.99;97.88;95315.50;4999665;28;20776;-65
2021/07/05 03:52:50;;;;;;;0.80;0.77;;;;;;;12.98;97.84;95315.69;4993532;28;20220;-66
2021/07/05 03:55:20;;;;;;;4.83;0.73;;;;;;;12.99;98.04;95315.50;4993599;28;20255;-65
2021/07/05 03:57:49;;;;;;;3.80;1.47;;;;;;;13.03;98.29;95306.13;4995468;28;20255;-65
2021/07/05 04:00:21;;;;;;;0.77;0.60;;;;;;;13.07;98.40;95306.50;5009164;28;20278;-66
2021/07/05 04:02:50;;;;;;;6.40;2.57;;;;;;;13.12;98.57;95309.38;5002820;28;20263;-66
2021/07/05 04:05:19;;;;;;;3.07;0.67;;;;;;;13.23;98.67;95311.38;5000796;28;20302;-66
2021/07/05 04:07:47;;;;;;;2.00;0.60;;;;;;;13.29;98.44;95299.97;5001637;28;20244;-66
2021/07/05 04:10:17;;;;;;;0.50;0.50;;;;;;;13.34;98.49;95300.13;4994054;28;20228;-66
2021/07/05 04:12:46;;;;;;;1.47;0.57;;;;;;;13.39;98.71;95294.22;4997413;28;20301;-66
2021/07/05 04:15:16;;;;;;;0.60;0.60;;;;;;;13.48;98.63;95302.75;5002942;28;20601;-66
2021/07/05 04:17:45;;;;;;;4.50;0.73;;;;;;;13.55;98.46;95306.19;5006394;28;20315;-66
2021/07/05 04:20:16;;;;;;;2.50;0.80;;;;;;;13.61;98.59;95302.69;4997770;28;20217;-66
2021/07/05 04:22:44;;;;;;;0.73;0.73;;;;;;;13.67;98.65;95301.84;5002219;28;20487;-66
2021/07/05 04:25:15;;;;;;;1.20;0.60;;;;;;;13.73;98.80;95305.50;5011608;28;20315;-65
2021/07/05 04:27:44;;;;;;;10.93;1.90;;;;;;;13.77;98.75;95302.19;5015656;28;20949;-66
2021/07/05 04:30:14;;;;;;;0.47;0.47;;;;;;;13.85;98.80;95288.69;4998043;28;20752;-66
2021/07/05 04:32:45;;;;;;;0.40;0.40;;;;;;;13.94;98.80;95287.41;4995344;28;20693;-66
2021/07/05 04:35:17;;;;;;;3.23;0.57;;;;;;;14.03;98.99;95287.16;4996373;28;20216;-66
2021/07/05 04:37:46;;;;;;;1.30;1.30;;;;;;;14.09;98.92;95281.81;4996322;28;20278;-66
2021/07/05 04:40:16;;;;;;;0.30;0.20;;;;;;;14.20;98.80;95275.00;4998204;28;20216;-66
2021/07/05 04:42:46;;;;;;;0.90;0.90;;;;;;;14.34;97.78;95281.00;5008709;28;20665;-66
2021/07/05 04:45:16;;;;;;;0.30;0.30;;;;;;;14.38;97.62;95293.63;4987806;28;20591;-66
2021/07/05 04:47:45;;;;;;;0.83;0.83;;;;;;;14.41;97.45;95287.06;4987651;28;20241;-65
2021/07/05 04:50:16;;;;;;;0.60;0.60;;;;;;;14.45;97.31;95285.66;5015957;28;20719;-65
2021/07/05 04:52:46;;;;;;;2.13;1.13;;;;;;;14.42;97.25;95289.50;5003361;28;20653;-64
2021/07/05 04:55:16;;;;;;;1.00;1.00;;;;;;;14.42;97.03;95288.69;5015708;28;20219;-66
2021/07/05 04:57:45;;;;;;;2.37;1.23;;;;;;;14.38;96.98;95277.72;5006916;28;20810;-66
2021/07/05 05:00:17;;;;;;;0.60;0.50;;;;;;;14.40;96.81;95274.84;5015957;28;20215;-66
2021/07/05 05:03:00;;;;;;;0.50;0.50;;;;;;;14.43;96.91;95283.16;4990934;28;20496;-65
2021/07/05 05:05:29;;;;;;;0.40;0.40;;;;;;;14.48;96.74;95275.41;5018696;28;20307;-65
2021/07/05 05:07:58;;;;;;;0.73;0.73;;;;;;;14.68;96.43;95272.56;5010855;28;20291;-66
2021/07/05 05:10:28;;;;;;;0.70;0.70;;;;;;;14.84;95.83;95271.22;5013376;28;20222;-65
2021/07/05 05:12:55;;;;;;;0.60;0.60;;;;;;;15.01;95.81;95269.59;5022739;28;20226;-66
2021/07/05 05:15:24;;;;;;;0.83;0.63;;;;;;;15.25;95.08;95277.72;5006650;28;20220;-66
2021/07/05 05:17:53;;;;;;;0.60;0.60;;;;;;;15.38;94.49;95282.88;5011983;28;20255;-66
2021/07/05 05:20:23;;;;;;;0.40;0.40;;;;;;;15.48;94.32;95283.16;5008480;28;20307;-65
2021/07/05 05:22:52;;;;;;;0.43;0.43;;;;;;;15.55;94.05;95280.44;5022874;28;20254;-67
2021/07/05 05:25:21;;;;;;;0.50;0.50;;;;;;;15.61;93.93;95269.72;5014167;28;20294;-67
2021/07/05 05:27:50;;;;;;;0.40;0.40;;;;;;;15.68;93.34;95276.81;5017001;28;20701;-67
2021/07/05 05:30:20;;;;;;;1.77;0.73;;;;;;;15.67;93.22;95285.84;5013776;28;20303;-66
2021/07/05 05:32:49;;;;;;;1.80;0.30;;;;;;;15.79;93.30;95281.38;5006206;28;20327;-66
2021/07/05 05:35:20;;;;;;;10.43;0.80;;;;;;;15.92;92.85;95289.19;4994428;28;20217;-66
2021/07/05 05:37:51;;;;;;;3.53;1.07;;;;;;;16.07;92.15;95297.56;5011139;28;20250;-66
2021/07/05 05:40:20;;;;;;;0.40;0.40;;;;;;;16.12;92.33;95292.38;5022606;28;20250;-66
2021/07/05 05:42:49;;;;;;;1.00;1.00;;;;;;;16.30;91.73;95286.16;5017356;28;20250;-66
2021/07/05 05:45:17;;;;;;;1.80;0.60;;;;;;;16.37;91.00;95276.22;5017934;28;20220;-66
2021/07/05 05:47:46;;;;;;;0.53;0.40;;;;;;;16.54;90.45;95281.66;5012318;28;20977;-66
2021/07/05 05:50:15;;;;;;;0.80;0.73;;;;;;;16.67;89.61;95281.47;5017583;28;20216;-65
2021/07/05 05:52:43;;;;;;;2.13;0.40;;;;;;;16.81;89.21;95278.59;5011438;28;20247;-65
2021/07/05 05:55:14;;;;;;;0.50;0.50;;;;;;;16.89;89.03;95276.41;5015933;28;20437;-66
2021/07/05 05:57:42;;;;;;;0.33;0.33;;;;;;;17.00;88.52;95282.75;5006960;28;20308;-66
2021/07/05 06:00:17;;;;;;;2.87;0.30;;;;;;;17.05;88.07;95283.69;5005721;28;20316;-65
2021/07/05 06:02:46;;;;;;;0.53;0.53;;;;;;;16.87;88.67;95275.81;5005906;28;20247;-66
2021/07/05 06:05:15;;;;;;;1.80;0.43;;;;;;;16.86;89.23;95278.72;5003395;28;20314;-66
2021/07/05 06:07:47;;;;;;;0.73;0.73;;;;;;;16.96;88.16;95278.94;5006144;28;20216;-66
2021/07/05 06:10:19;;;;;;;0.60;0.60;;;;;;;17.12;87.45;95272.09;5004160;28;20641;-66
2021/07/05 06:12:47;;;;;;;0.43;0.40;;;;;;;17.24;87.86;95268.38;5022441;28;20877;-65
2021/07/05 06:15:17;;;;;;;0.33;0.30;;;;;;;17.45;87.54;95256.25;5019052;28;20239;-66
2021/07/05 06:17:45;;;;;;;0.60;0.43;;;;;;;17.62;86.66;95256.31;5014363;28;20252;-64
2021/07/05 06:20:14;;;;;;;1.07;0.40;;;;;;;17.76;86.01;95260.38;5013988;28;20283;-66
2021/07/05 06:23:06;;;;;;;1.10;0.30;;;;;;;17.94;85.52;95259.38;5023504;28;20249;-66
2021/07/05 06:25:37;;;;;;;3.00;0.20;;;;;;;18.07;84.45;95258.25;5016305;28;20278;-66
2021/07/05 06:28:05;;;;;;;0.47;0.47;;;;;;;18.31;83.74;95254.41;5025128;28;20791;-66
2021/07/05 06:30:33;;;;;;;0.30;0.30;;;;;;;18.36;83.69;95257.16;5025781;28;20247;-65
2021/07/05 06:33:02;;;;;;;0.53;0.20;;;;;;;18.46;80.91;95259.16;5018016;28;20228;-66
2021/07/05 06:35:30;;;;;;;0.80;0.70;;;;;;;18.56;81.10;95255.84;5003308;28;20315;-66
2021/07/05 06:37:58;;;;;;;0.20;0.20;;;;;;;18.69;80.74;95255.56;5010533;28;20259;-65
2021/07/05 06:40:27;;;;;;;0.50;0.30;;;;;;;18.78;80.22;95254.09;5004438;28;20223;-66
2021/07/05 06:42:57;;;;;;;0.40;0.40;;;;;;;18.79;80.36;95255.72;5012496;28;20806;-66
2021/07/05 06:45:25;;;;;;;0.50;0.47;;;;;;;18.70;80.88;95267.88;5009186;28;20326;-66
2021/07/05 06:47:53;;;;;;;1.63;1.53;;;;;;;18.75;82.49;95260.75;5006447;28;20308;-66
2021/07/05 06:50:21;;;;;;;0.40;0.40;;;;;;;18.91;81.66;95263.63;5016391;28;20227;-67
2021/07/05 06:52:49;;;;;;;0.30;0.30;;;;;;;19.13;81.61;95269.03;5021240;28;20740;-66
2021/07/05 06:55:18;;;;;;;1.90;0.30;;;;;;;19.14;78.33;95284.03;5011137;28;20309;-66
2021/07/05 06:57:47;;;;;;;0.20;0.20;;;;;;;19.44;78.99;95273.72;5005284;28;20633;-66
2021/07/05 07:00:22;;;;;;;0.40;0.40;;;;;;;19.57;79.17;95284.09;5011615;28;20303;-65
2021/07/05 07:02:52;;;;;;;0.30;0.30;;;;;;;19.51;79.04;95285.06;5018518;28;20690;-66
2021/07/05 07:05:22;;;;;;;1.90;0.30;;;;;;;19.68;78.54;95276.19;5012418;28;20223;-65
2021/07/05 07:07:53;;;;;;;4.20;0.37;;;;;;;19.80;77.32;95276.84;5003346;28;20314;-66
2021/07/05 07:10:23;;;;;;;0.53;0.53;;;;;;;19.88;77.22;95279.91;5008361;28;20289;-67
2021/07/05 07:12:53;;;;;;;0.27;0.27;;;;;;;19.80;76.14;95287.56;5012703;28;20262;-67
2021/07/05 07:15:47;;;;;;;1.17;0.30;;;;;;;19.76;77.31;95281.09;5016315;28;20228;-67
2021/07/05 07:18:33;;;;;;;1.77;0.20;;;;;;;19.72;77.34;95274.63;5024281;28;20220;-66
2021/07/05 07:21:05;;;;;;;0.93;0.63;;;;;;;19.80;77.72;95266.94;5015009;28;20305;-67
2021/07/05 07:23:33;;;;;;;0.33;0.20;;;;;;;19.87;76.25;95256.06;5014178;28;20302;-67
2021/07/05 07:26:02;;;;;;;1.03;0.30;;;;;;;19.94;76.72;95256.66;5014170;28;20733;-66
2021/07/05 07:28:30;;;;;;;1.10;0.30;;;;;;;19.91;76.81;95251.00;5024533;28;20362;-66
2021/07/05 07:31:00;;;;;;;0.97;0.37;;;;;;;19.93;76.28;95254.22;5024552;28;20254;-66
2021/07/05 07:33:28;;;;;;;2.30;0.30;;;;;;;19.86;75.92;95254.44;5018847;28;20659;-67
2021/07/05 07:35:58;;;;;;;0.30;0.30;;;;;;;19.96;76.81;95254.53;5005925;28;20216;-67
2021/07/05 07:38:27;;;;;;;0.93;0.40;;;;;;;20.17;76.18;95253.66;4999215;28;20248;-66
2021/07/05 07:40:55;;;;;;;0.40;0.30;;;;;;;20.25;74.66;95256.97;5002709;28;20432;-65
2021/07/05 07:43:24;;;;;;;0.40;0.30;;;;;;;20.47;74.89;95265.75;5009686;28;20576;-66
2021/07/05 07:45:53;;;;;;;1.90;1.13;;;;;;;20.38;74.39;95260.03;5008908;28;20724;-67
2021/07/05 07:48:22;;;;;;;0.30;0.30;;;;;;;20.41;73.74;95261.41;5015640;28;20308;-66
2021/07/05 07:50:51;;;;;;;1.17;0.37;;;;;;;20.38;73.02;95264.56;5015743;28;20324;-66
2021/07/05 07:53:19;;;;;;;3.53;0.50;;;;;;;20.51;74.27;95258.84;5019854;28;20688;-66
2021/07/05 07:55:47;;;;;;;0.50;0.40;;;;;;;20.51;73.46;95256.16;5013886;28;20284;-65
2021/07/05 07:58:15;;;;;;;0.60;0.60;;;;;;;20.40;74.19;95257.09;5010168;28;20302;-66
2021/07/05 08:00:43;;;;;;;0.47;0.43;;;;;;;20.62;74.17;95260.53;5018937;28;20655;-66
2021/07/05 08:03:12;;;;;;;0.40;0.40;;;;;;;20.47;73.64;95265.75;5016587;28;20216;-65
2021/07/05 08:05:42;;;;;;;0.80;0.80;;;;;;;20.17;74.18;95256.34;5011274;28;20224;-66
2021/07/05 08:08:12;;;;;;;0.30;0.30;;;;;;;20.30;73.83;95259.66;5004153;28;20235;-66
2021/07/05 08:10:40;;;;;;;0.83;0.80;;;;;;;20.30;74.53;95260.50;5014337;28;20402;-67
2021/07/05 08:13:09;;;;;;;0.37;0.30;;;;;;;20.10;73.62;95261.09;5013176;28;20303;-66
2021/07/05 08:15:36;;;;;;;0.83;0.20;;;;;;;20.01;73.49;95265.28;5020609;28;20479;-66
2021/07/05 08:18:05;;;;;;;0.20;0.20;;;;;;;20.11;75.22;95265.38;5008113;28;20275;-66
2021/07/05 08:20:33;;;;;;;0.53;0.53;;;;;;;19.79;74.45;95269.88;5010890;28;20315;-66
2021/07/05 08:23:03;;;;;;;0.67;0.30;;;;;;;19.47;76.32;95267.84;5023044;28;20230;-66
2021/07/05 08:25:31;;;;;;;0.30;0.30;;;;;;;19.76;76.17;95265.03;5004857;28;20263;-65
2021/07/05 08:27:59;;;;;;;0.43;0.40;;;;;;;19.73;76.05;95268.19;5018039;28;20302;-66
2021/07/05 08:30:28;;;;;;;0.60;0.40;;;;;;;19.88;75.59;95273.75;5027620;28;20254;-66
2021/07/05 08:32:57;;;;;;;0.73;0.73;;;;;;;19.69;74.25;95259.06;5006482;28;20282;-66
2021/07/05 08:35:30;;;;;;;0.60;0.50;;;;;;;19.67;75.90;95271.91;5010754;28;20258;-67
2021/07/05 08:37:58;;;;;;;0.70;0.70;;;;;;;19.83;76.27;95271.00;5020861;28;20767;-66
2021/07/05 08:40:28;;;;;;;0.30;0.30;;;;;;;19.82;74.46;95269.38;5011740;28;20582;-67
2021/07/05 08:42:57;;;;;;;0.40;0.40;;;;;;;20.06;75.86;95269.91;5017320;28;20301;-67
2021/07/05 08:45:26;;;;;;;1.80;0.20;;;;;;;20.21;73.90;95266.56;5013941;28;20619;-66
2021/07/05 08:47:56;;;;;;;0.20;0.20;;;;;;;20.12;75.14;95275.06;5007586;28;20381;-67
2021/07/05 08:50:27;;;;;;;0.33;0.30;;;;;;;19.89;74.95;95280.72;5019091;28;20230;-67
2021/07/05 08:52:56;;;;;;;0.60;0.50;;;;;;;19.71;73.48;95273.00;5006800;28;20297;-66
2021/07/05 08:55:27;;;;;;;0.40;0.40;;;;;;;20.08;75.01;95279.31;5019284;28;20301;-66
2021/07/05 08:57:56;;;;;;;0.67;0.60;;;;;;;20.07;76.68;95277.69;5007782;28;20766;-67
2021/07/05 09:00:27;;;;;;;0.30;0.30;;;;;;;20.22;75.24;95278.91;5018823;28;20234;-66
2021/07/05 09:02:56;;;;;;;0.33;0.30;;;;;;;20.31;73.03;95278.19;5001470;28;20252;-67
2021/07/05 09:05:25;;;;;;;2.40;0.73;;;;;;;20.33;74.33;95276.06;5010530;28;20302;-67
2021/07/05 09:07:58;;;;;;;0.33;0.33;;;;;;;20.08;76.32;95286.53;4999065;28;20247;-67
2021/07/05 09:10:27;;;;;;;1.53;0.60;;;;;;;20.02;73.77;95288.34;5018136;28;20428;-67
2021/07/05 09:13:08;;;;;;;1.13;0.73;;;;;;;19.97;75.71;95282.13;5011464;28;20251;-67
2021/07/05 09:15:42;;;;;;;0.60;0.47;;;;;;;20.04;76.55;95278.19;5017147;28;20258;-66
2021/07/05 09:18:34;;;;;;;0.43;0.40;;;;;;;20.19;76.29;95280.22;5006037;28;20255;-67
2021/07/05 09:21:20;;;;;;;0.60;0.60;;;;;;;20.29;75.87;95279.50;5015102;28;20228;-66
2021/07/05 09:23:57;;;;;;;0.20;0.20;;;;;;;20.35;76.55;95281.97;5010269;28;20329;-66
2021/07/05 09:26:29;;;;;;;0.30;0.30;;;;;;;20.35;74.52;95281.16;5017465;28;20234;-65
2021/07/05 09:29:00;;;;;;;1.90;0.37;;;;;;;20.73;74.06;95275.63;5008726;28;20236;-66
2021/07/05 09:31:30;;;;;;;0.50;0.50;;;;;;;20.84;73.07;95275.69;5006757;28;20756;-66
2021/07/05 09:33:58;;;;;;;0.53;0.47;;;;;;;20.95;73.93;95282.78;5008164;28;20246;-66
2021/07/05 09:36:27;;;;;;;0.30;0.30;;;;;;;20.86;71.10;95285.13;5000353;28;20231;-66
2021/07/05 09:38:55;;;;;;;0.30;0.30;;;;;;;20.89;69.73;95278.41;5005455;28;20258;-66
2021/07/05 09:41:25;;;;;;;0.93;0.50;;;;;;;20.49;71.65;95277.06;5012476;28;20228;-65
2021/07/05 09:43:56;;;;;;;0.97;0.20;;;;;;;20.80;70.65;95279.97;5005137;28;20256;-65
2021/07/05 09:46:39;;;;;;;0.77;0.50;;;;;;;20.67;72.11;95276.66;5009609;28;20251;-66
2021/07/05 09:49:20;;;;;;;0.70;0.70;;;;;;;20.78;72.76;95279.41;5005165;28;20428;-66
2021/07/05 09:52:04;;;;;;;0.30;0.30;;;;;;;20.68;72.39;95275.59;5003633;28;20300;-65
2021/07/05 09:54:33;;;;;;;0.60;0.40;;;;;;;20.90;71.73;95291.56;4998830;28;20238;-64
2021/07/05 09:57:02;;;;;;;0.43;0.43;;;;;;;21.08;71.41;95279.63;4999341;28;20385;-64
2021/07/05 09:59:31;;;;;;;0.40;0.40;;;;;;;21.44;68.90;95279.84;5010166;28;20310;-66
2021/07/05 10:02:01;;;;;;;0.90;0.40;;;;;;;21.57;69.87;95279.38;5013212;28;20648;-65
2021/07/05 10:04:34;;;;;;;1.77;0.70;;;;;;;21.85;70.89;95276.28;5002765;28;20230;-65
2021/07/05 10:07:04;;;;;;;2.10;0.60;;;;;;;22.42;67.35;95280.72;5000288;28;20228;-65
2021/07/05 10:09:35;;;;;;;0.30;0.30;;;;;;;22.61;65.66;95274.81;5012040;28;20795;-64
2021/07/05 10:12:18;;;;;;;0.30;0.30;;;;;;;22.37;66.72;95277.22;5002628;28;20611;-66
2021/07/05 10:14:56;;;;;;;0.40;0.40;;;;;;;22.61;65.21;95278.31;5007049;28;20788;-66
2021/07/05 10:17:28;;;;;;;1.17;0.77;;;;;;;22.43;66.96;95276.97;5005243;28;20298;-66
2021/07/05 10:19:57;;;;;;;0.77;0.77;;;;;;;23.02;66.26;95285.59;5003393;28;20224;-66
2021/07/05 10:22:25;;;;;;;1.07;0.40;;;;;;;23.43;66.27;95279.06;5000201;28;20252;-66
2021/07/05 10:24:54;;;;;;;2.83;2.10;;;;;;;23.34;64.06;95269.91;4999588;28;20773;-66
2021/07/05 10:27:23;;;;;;;0.83;0.83;;;;;;;23.24;64.48;95278.84;5001254;28;20232;-66
2021/07/05 10:29:52;;;;;;;0.57;0.57;;;;;;;23.18;67.32;95287.19;5008617;28;20251;-66
2021/07/05 10:32:21;;;;;;;0.40;0.40;;;;;;;23.35;66.04;95284.19;5015560;28;20529;-66
2021/07/05 10:34:54;;;;;;;1.40;1.30;;;;;;;23.15;66.74;95285.03;5000526;28;20232;-66
2021/07/05 10:37:31;;;;;;;0.40;0.30;;;;;;;22.70;66.11;95292.03;5002785;28;20757;-66
2021/07/05 10:40:01;;;;;;;0.80;0.60;;;;;;;21.95;68.61;95285.44;5003823;28;20255;-66
2021/07/05 10:42:41;;;;;;;2.47;0.63;;;;;;;22.03;69.52;95287.59;5000901;28;20474;-64
2021/07/05 10:45:11;;;;;;;0.70;0.40;;;;;;;21.90;68.35;95282.72;5009678;28;20216;-66
2021/07/05 10:47:52;;;;;;;0.80;0.80;;;;;;;21.64;70.83;95282.63;5005685;28;20783;-66
2021/07/05 10:50:56;;;;;;;0.30;0.30;;;;;;;21.53;72.15;95278.28;4997808;28;20716;-66
2021/07/05 10:53:54;;;;;;;0.50;0.50;;;;;;;21.46;72.63;95283.88;5013356;28;20318;-67
2021/07/05 10:56:32;;;;;;;0.87;0.40;;;;;;;21.35;73.24;95276.84;4998693;28;20721;-66
2021/07/05 10:59:39;;;;;;;0.47;0.40;;;;;;;21.22;72.25;95280.78;5004331;28;20228;-66
2021/07/05 11:02:43;;;;;;;0.30;0.30;;;;;;;21.23;72.88;95282.41;4998289;28;20290;-66
2021/07/05 11:05:33;;;;;;;0.33;0.33;;;;;;;21.15;72.80;95293.63;5003976;28;20733;-66
2021/07/05 11:08:20;;;;;;;0.40;0.40;;;;;;;21.21;73.64;95297.97;4996718;28;20664;-66
2021/07/05 11:10:48;;;;;;;0.70;0.50;;;;;;;21.33;72.84;95308.53;5010378;28;20257;-65
2021/07/05 11:13:18;;;;;;;0.30;0.30;;;;;;;21.45;73.34;95297.56;5008749;28;20306;-66
2021/07/05 11:15:52;;;;;;;2.17;0.47;;;;;;;21.54;72.54;95282.59;5002060;28;20618;-66
2021/07/05 11:19:06;;;;;;;0.50;0.40;;;;;;;21.70;69.49;95295.00;5005351;28;20979;-66
2021/07/05 11:21:54;;;;;;;0.60;0.40;;;;;;;21.87;69.36;95286.75;5003491;28;20234;-66
2021/07/05 11:24:32;;;;;;;0.30;0.30;;;;;;;22.13;69.16;95290.38;5003150;28;20773;-67
2021/07/05 11:27:25;;;;;;;0.70;0.70;;;;;;;22.34;69.52;95283.94;5004674;28;20705;-66
2021/07/05 11:29:54;;;;;;;0.30;0.30;;;;;;;22.60;69.00;95281.28;5005350;28;20432;-66
2021/07/05 11:32:37;;;;;;;0.40;0.40;;;;;;;22.80;65.86;95278.59;5007717;28;20721;-66
2021/07/05 11:35:44;;;;;;;0.50;0.30;;;;;;;22.78;65.26;95269.97;4997743;28;20247;-66
2021/07/05 11:38:23;;;;;;;1.57;0.67;;;;;;;22.82;65.15;95271.03;4995688;28;20314;-67
2021/07/05 11:40:55;;;;;;;1.13;0.30;;;;;;;22.85;63.62;95278.59;5010809;28;20665;-66
2021/07/05 11:43:45;;;;;;;0.50;0.30;;;;;;;22.84;66.80;95282.38;5004378;28;20606;-66
2021/07/05 11:46:17;;;;;;;0.23;0.23;;;;;;;22.82;67.63;95286.38;5002282;28;20264;-66
2021/07/05 11:48:59;;;;;;;0.77;0.53;;;;;;;22.35;67.02;95279.38;5004988;28;20702;-65
2021/07/05 11:51:29;;;;;;;1.33;0.50;;;;;;;22.61;67.68;95288.28;5003053;28;20235;-66
2021/07/05 11:53:59;;;;;;;0.40;0.40;;;;;;;22.61;65.11;95277.50;4994468;28;20232;-66